Terminal Aerodrome Forecast
Issued by NWS Wilmington, OH

Home | Current Version | Previous Version | Text Only | Print | Product List | Glossary On
Versions: 1 2 3 4 5 6 7 8 9 10 11 12 13 14 15 16 17 18 19 20 21 22 23 24
116
FTUS41 KILN 211720
TAFCVG
TAF
KCVG 211720Z 2118/2224 16004KT P6SM SCT035
     FM212300 VRB03KT P6SM FEW250
     FM220900 00000KT 5SM BR SKC
     FM221300 VRB03KT P6SM FEW035=

USA.gov is the U.S. government's official web portal to all federal, state and local government web resources and services.